Flight Track Log - Related Links

Times and Time Zones

All times are in EDT time to prevent confusion due to time zone crossing. See the AWI3688 flight status page for this flight to view local times or setup timezone preferences in your user account.

Time Position Orientation Groundspeed Altitude Reporting Facility
EDT Latitude Longitude Course Direction KTS MPH feet Rate Location/Type
Fri 04:01:41 PM 42.7025 -73.8189 196° South 181 208 2,400  Level Boston Center
Fri 04:02:15 PM 42.6958 -73.8583 257° West 215 247 3,800 2,164 Climbing Boston Center
Fri 04:02:42 PM 42.6994 -73.8978 277° West 243 280 4,600 2,100 Climbing Boston Center
Fri 04:03:15 PM 42.7072 -73.9517 281° West 275 316 5,900 2,645 Climbing Boston Center
Fri 04:04:00 PM 42.7095 -74.3414 220° Southwest  Level FlightAware Approximate
Fri 04:04:15 PM 42.7183 -74.0508 279° West 281 323 8,700  Level Boston Center
Fri 04:05:00 PM 42.6313 -74.4295 220° Southwest  Level FlightAware Approximate
Fri 04:05:15 PM 42.7025 -74.1294 255° West 254 292 11,000  Level Boston Center
Fri 04:06:00 PM 42.5544 -74.5195 223° Southwest  Level FlightAware Approximate
Fri 04:06:15 PM 42.6469 -74.2242 231° Southwest 269 310 12,400  Level Boston Center
Fri 04:07:15 PM 42.5978 -74.3017 229° Southwest 303 349 14,300 1,900 Climbing Boston Center
Fri 04:08:15 PM 42.5356 -74.4011 230° Southwest 308 354 16,200 1,550 Climbing Boston Center
Fri 04:09:15 PM 42.4819 -74.4839 229° Southwest 318 366 17,400 1,300 Climbing Boston Center
Fri 04:10:15 PM 42.4156 -74.5858 229° Southwest 328 377 18,800 800 Climbing Boston Center
Fri 04:11:15 PM 42.3617 -74.6739 230° Southwest 334 384 19,000 75 Climbing Boston Center
Fri 04:12:54 PM 42.2531 -74.8444 229° Southwest 345 397 19,000  Level New York Center
Fri 04:13:54 PM 42.1831 -74.9464 227° Southwest 356 410 19,000  Level New York Center
Fri 04:14:54 PM 42.1078 -75.0169 215° Southwest 362 417 19,000  Level New York Center
Fri 04:15:55 PM 42.0175 -75.0950 213° Southwest 367 422 19,000  Level New York Center
Fri 04:16:53 PM 41.9444 -75.1544 211° Southwest 348 400 19,000  Level New York Center
Fri 04:17:54 PM 41.8608 -75.2211 211° Southwest 348 400 19,000 -443 Level New York Center
Fri 04:18:55 PM 41.7706 -75.2931 211° Southwest 353 406 18,100 -1,240 Descending New York Center
Fri 04:19:55 PM 41.6911 -75.3572 211° Southwest 345 397 16,500 -1,613 Descending New York Center
Fri 04:20:54 PM 41.6136 -75.4211 212° Southwest 345 397 14,900 -1,537 Descending New York Center
Fri 04:21:56 PM 41.5450 -75.4744 210° Southwest 340 391 13,400 -1,462 Descending New York Center
Fri 04:22:53 PM 41.4675 -75.5356 211° Southwest 335 386 12,000 -718 Descending New York Center
Fri 04:23:53 PM 41.3878 -75.5992 211° Southwest 321 369 12,000  Level New York Center
Fri 04:24:54 PM 41.3192 -75.6522 210° Southwest 321 369 12,000  Level New York Center
Fri 04:25:55 PM 41.2278 -75.6925 198° South 321 369 12,000 -353 Level New York Center
Fri 04:26:53 PM 41.1447 -75.6892 178° South 327 376 11,300 -857 Descending New York Center
Fri 04:27:54 PM 41.0531 -75.6881 179° South 332 382 10,300 -645 Descending New York Center
Fri 04:28:54 PM 40.9531 -75.6889 180° South 332 382 10,000 -149 Descending New York Center
Fri 04:29:55 PM 40.8592 -75.6878 179° South 333 383 10,000  Level New York Center
Fri 04:30:55 PM 40.7656 -75.6864 179° South 333 383 10,000  Level New York Center
Fri 04:31:53 PM 40.6886 -75.6344 153° Southeast 333 383 10,000  Level New York Center
Fri 04:32:54 PM 40.5958 -75.5567 148° Southeast 348 400 10,000  Level New York Center
Fri 04:33:54 PM 40.5192 -75.4914 147° Southeast 348 400 10,000 -443 Level New York Center
Fri 04:34:56 PM 40.4506 -75.4347 148° Southeast 312 359 9,100 -756 Descending New York Center
Fri 04:35:53 PM 40.3881 -75.3869 150° Southeast 296 341 8,500 -1,179 Descending New York Center
Fri 04:36:53 PM 40.3172 -75.3306 149° Southeast 279 321 6,800 -1,537 Descending New York Center
Fri 04:37:54 PM 40.2478 -75.2906 156° South 279 321 5,400 -1,328 Descending New York Center
Fri 04:38:55 PM 40.1825 -75.2564 158° South 272 313 4,100 -706 Descending New York Center
Fri 04:39:53 PM 40.1067 -75.2244 162° South 267 307 4,000 -79 Descending New York Center
Fri 04:40:11 PM 40.0833 -75.2167 166° South 263 303 4,000  Level Philadelphia TRACON
Fri 04:41:17 PM 40.0167 -75.1833 159° South 265 305 4,000  Level Philadelphia TRACON
Fri 04:42:11 PM 39.9500 -75.1500 159° South 231 266 4,000  Level Philadelphia TRACON
Fri 04:43:17 PM 39.9000 -75.1167 153° Southeast 194 223 4,000 -429 Level Philadelphia TRACON
Fri 04:44:17 PM 39.8500 -75.1000 166° South 182 209 3,100 -556 Descending Philadelphia TRACON
Fri 04:45:05 PM 39.8000 -75.0833 166° South 181 208 3,000 -556 Descending Philadelphia TRACON
Fri 04:46:05 PM 39.7667 -75.0833 180° South 179 206 2,100 -667 Descending Philadelphia TRACON
Fri 04:47:11 PM 39.7667 -75.1500 270° West 181 208 1,600 -286 Descending Philadelphia TRACON
Fri 04:48:11 PM 39.8000 -75.1833 322° Northwest 169 194 1,500 -100 Descending Philadelphia TRACON

Login

Don't have an account? Register now (free) for customized features, flight alerts, and more!